Time;durP1;ratioP1;P1;durP2;ratioP2;P2;SDS_P1;SDS_P2;PMS_P1;PMS_P2;Temp;Humidity;BMP_temperature;BMP_pressure;BME280_temperature;BME280_humidity;BME280_pressure;Samples;Min_cycle;Max_cycle;Signal;HPM_P1;HPM_P2
2021/07/21 00:00:15;;;;;;;14.20;9.27;;;20.10;94.60;;;;;;5004685;28;20048;-49
2021/07/21 00:02:41;;;;;;;13.43;10.00;;;20.00;94.60;;;;;;5054143;28;20045;-49
2021/07/21 00:05:12;;;;;;;11.23;9.38;;;20.10;94.70;;;;;;5037551;28;20036;-49
2021/07/21 00:07:37;;;;;;;14.63;9.23;;;20.10;94.70;;;;;;5041738;28;20063;-48
2021/07/21 00:10:05;;;;;;;13.27;9.60;;;20.00;94.50;;;;;;5075075;28;20527;-49
2021/07/21 00:15:17;;;;;;;13.27;9.18;;;20.00;94.50;;;;;;5074260;28;20431;-49
2021/07/21 00:17:45;;;;;;;11.18;9.63;;;20.00;94.70;;;;;;5077068;28;20411;-49
2021/07/21 00:20:12;;;;;;;13.18;8.82;;;19.90;94.70;;;;;;5065713;28;20183;-48
2021/07/21 00:22:45;;;;;;;14.70;10.00;;;20.00;94.70;;;;;;5081350;28;20031;-50
2021/07/21 00:25:15;;;;;;;12.52;9.02;;;19.90;94.60;;;;;;5081648;28;20075;-48
2021/07/21 00:27:43;;;;;;;15.23;9.32;;;20.00;94.70;;;;;;5115649;28;20040;-48
2021/07/21 00:30:11;;;;;;;12.60;8.82;;;19.90;94.70;;;;;;5115403;28;20530;-48
2021/07/21 00:32:38;;;;;;;12.38;8.93;;;19.90;94.60;;;;;;5065496;28;20532;-49
2021/07/21 00:35:08;;;;;;;12.05;9.20;;;19.90;94.70;;;;;;5115526;28;20122;-48
2021/07/21 00:37:35;;;;;;;11.73;9.45;;;20.00;94.70;;;;;;5065781;28;20470;-48
2021/07/21 00:40:02;;;;;;;14.23;10.27;;;19.90;94.60;;;;;;5115367;28;20035;-48
2021/07/21 00:42:28;;;;;;;12.57;9.65;;;19.90;94.60;;;;;;5111696;28;20450;-48
2021/07/21 00:44:54;;;;;;;19.23;10.77;;;19.80;94.70;;;;;;5114857;28;20071;-49
2021/07/21 00:47:20;;;;;;;12.57;9.98;;;19.80;94.80;;;;;;5084286;28;20052;-48
2021/07/21 00:49:46;;;;;;;13.18;10.07;;;19.80;94.70;;;;;;5115033;28;20116;-49
2021/07/21 00:52:12;;;;;;;10.77;8.75;;;19.80;94.60;;;;;;5115015;28;20501;-48
2021/07/21 00:54:39;;;;;;;13.18;9.88;;;19.80;94.60;;;;;;5030563;28;20047;-49
2021/07/21 00:57:05;;;;;;;17.55;10.25;;;19.80;94.70;;;;;;5096312;28;20035;-47
2021/07/21 00:59:34;;;;;;;13.18;9.77;;;19.80;94.60;;;;;;5066982;27;20477;-47
2021/07/21 01:02:01;;;;;;;14.05;10.00;;;19.70;94.80;;;;;;5083993;27;20035;-48
2021/07/21 01:04:29;;;;;;;14.25;8.95;;;19.60;94.90;;;;;;5135412;27;20043;-49
2021/07/21 01:06:55;;;;;;;13.90;10.23;;;19.60;94.90;;;;;;5135465;27;20118;-49
2021/07/21 01:09:22;;;;;;;11.57;9.50;;;19.60;94.90;;;;;;5114798;27;20024;-48
2021/07/21 01:12:17;;;;;;;14.25;9.70;;;19.60;95.00;;;;;;5094322;28;20214;-47
2021/07/21 01:14:54;;;;;;;15.20;10.75;;;19.50;95.30;;;;;;5073675;28;20141;-48
2021/07/21 01:17:31;;;;;;;14.98;10.70;;;19.40;95.00;;;;;;5056141;28;20045;-49
2021/07/21 01:20:18;;;;;;;13.57;9.88;;;19.40;95.00;;;;;;5073853;28;20059;-48
2021/07/21 01:22:47;;;;;;;15.60;9.77;;;19.40;95.00;;;;;;5073549;28;20085;-49
2021/07/21 01:25:19;;;;;;;14.15;10.25;;;19.50;95.00;;;;;;5073967;28;20037;-47
2021/07/21 01:27:47;;;;;;;13.40;9.63;;;19.40;95.10;;;;;;5056965;28;20503;-48
2021/07/21 01:30:24;;;;;;;15.68;9.43;;;19.40;95.00;;;;;;5073633;28;20163;-47
2021/07/21 01:32:54;;;;;;;14.55;9.68;;;19.30;95.10;;;;;;5073395;28;20079;-48
2021/07/21 01:35:34;;;;;;;15.00;10.40;;;19.30;95.10;;;;;;5073619;28;20435;-48
2021/07/21 01:38:05;;;;;;;15.18;9.50;;;19.30;95.10;;;;;;5073335;28;20044;-49
2021/07/21 01:40:44;;;;;;;13.97;11.07;;;19.20;95.20;;;;;;5073770;28;20036;-49
2021/07/21 01:43:15;;;;;;;15.05;10.75;;;19.20;95.40;;;;;;5056851;28;20762;-49
2021/07/21 01:45:45;;;;;;;19.27;12.55;;;19.20;95.20;;;;;;5073344;28;20545;-48
2021/07/21 01:48:11;;;;;;;17.00;12.13;;;19.10;95.30;;;;;;5073184;28;20090;-48
2021/07/21 01:50:39;;;;;;;17.30;10.63;;;19.20;95.30;;;;;;5077308;28;20387;-48
2021/07/21 01:53:05;;;;;;;12.63;9.70;;;19.20;95.20;;;;;;5116099;28;20035;-49
2021/07/21 01:55:31;;;;;;;12.77;9.90;;;19.20;95.10;;;;;;5116569;28;20399;-48
2021/07/21 01:57:57;;;;;;;13.48;10.40;;;19.30;95.10;;;;;;5079778;28;20040;-47
2021/07/21 02:00:25;;;;;;;11.73;9.10;;;19.30;95.00;;;;;;5131006;27;20135;-48
2021/07/21 02:02:56;;;;;;;15.75;9.93;;;19.30;94.90;;;;;;5096797;28;20044;-48
2021/07/21 02:05:24;;;;;;;14.68;10.55;;;19.30;94.90;;;;;;5131019;27;20074;-51
2021/07/21 02:07:52;;;;;;;12.65;9.77;;;19.30;94.60;;;;;;5115778;28;20035;-48
2021/07/21 02:10:21;;;;;;;16.92;10.07;;;19.30;94.70;;;;;;5115949;28;20036;-47
2021/07/21 02:12:53;;;;;;;14.13;9.98;;;19.30;94.60;;;;;;5096781;28;20043;-49
2021/07/21 02:15:19;;;;;;;14.77;9.48;;;19.30;94.60;;;;;;5115636;28;20035;-48
2021/07/21 02:17:46;;;;;;;14.60;9.82;;;19.20;94.50;;;;;;5115646;28;20039;-48
2021/07/21 02:20:13;;;;;;;12.85;9.70;;;19.20;94.60;;;;;;5115973;28;20371;-48
2021/07/21 02:22:42;;;;;;;17.23;10.40;;;19.10;94.50;;;;;;5096452;28;20504;-48
2021/07/21 02:25:09;;;;;;;15.55;10.32;;;19.20;94.60;;;;;;5115683;28;20470;-49
2021/07/21 02:27:36;;;;;;;12.88;10.00;;;19.10;94.50;;;;;;5115708;28;20168;-48
2021/07/21 02:30:04;;;;;;;13.77;9.80;;;19.10;94.40;;;;;;5115123;28;20027;-47
2021/07/21 02:32:36;;;;;;;13.07;9.45;;;19.10;94.40;;;;;;5130667;27;20132;-47
2021/07/21 02:35:03;;;;;;;12.55;9.77;;;19.00;94.30;;;;;;5115477;28;20027;-48
2021/07/21 02:37:28;;;;;;;20.25;11.23;;;19.00;94.20;;;;;;5115309;28;20024;-49
2021/07/21 02:39:54;;;;;;;20.38;10.85;;;18.90;94.40;;;;;;5114067;28;20136;-48
2021/07/21 02:42:22;;;;;;;12.93;10.27;;;18.80;94.70;;;;;;5115050;27;20034;-48
2021/07/21 02:44:50;;;;;;;13.85;9.77;;;18.90;94.70;;;;;;5127046;27;20027;-48
2021/07/21 02:47:17;;;;;;;13.10;10.18;;;18.90;94.60;;;;;;5114366;27;20409;-48
2021/07/21 02:49:45;;;;;;;19.25;11.75;;;18.90;94.40;;;;;;5122399;27;20047;-47
2021/07/21 02:52:29;;;;;;;17.92;10.10;;;18.90;94.40;;;;;;5124326;27;20030;-48
2021/07/21 02:55:14;;;;;;;18.35;11.40;;;18.90;94.50;;;;;;5120340;27;20034;-48
2021/07/21 02:57:43;;;;;;;14.95;10.30;;;18.90;94.40;;;;;;5116399;27;20378;-49
2021/07/21 03:00:15;;;;;;;15.65;10.82;;;18.90;94.30;;;;;;5135419;27;20043;-50
2021/07/21 03:02:42;;;;;;;14.60;11.40;;;18.90;94.40;;;;;;5083649;28;20044;-50
2021/07/21 03:05:11;;;;;;;19.42;11.40;;;18.80;94.30;;;;;;5107895;28;20043;-48
2021/07/21 03:07:47;;;;;;;18.90;11.23;;;18.80;94.30;;;;;;5112798;28;20061;-50
2021/07/21 03:10:15;;;;;;;16.98;11.18;;;18.90;94.20;;;;;;5124368;27;20126;-50
2021/07/21 03:12:47;;;;;;;14.52;11.02;;;18.90;94.40;;;;;;5116409;27;20034;-50
2021/07/21 03:15:14;;;;;;;14.82;10.73;;;18.80;94.30;;;;;;5114457;27;20054;-47
2021/07/21 03:17:42;;;;;;;17.73;11.68;;;18.80;94.20;;;;;;5135365;27;20038;-48
2021/07/21 03:20:08;;;;;;;17.52;13.88;;;18.80;94.30;;;;;;5134331;27;20031;-47
2021/07/21 03:22:38;;;;;;;13.07;9.38;;;18.80;94.30;;;;;;5078629;28;20196;-48
2021/07/21 03:25:07;;;;;;;13.50;10.40;;;18.80;94.20;;;;;;5114452;28;20043;-48
2021/07/21 03:27:36;;;;;;;17.38;11.23;;;18.90;94.40;;;;;;5028728;28;20124;-47
2021/07/21 03:30:05;;;;;;;15.32;10.82;;;18.80;94.40;;;;;;5114459;28;20036;-47
2021/07/21 03:32:31;;;;;;;14.93;10.98;;;18.90;94.40;;;;;;5114438;28;20492;-47
2021/07/21 03:34:57;;;;;;;17.38;10.93;;;18.90;94.40;;;;;;5114374;28;20059;-48
2021/07/21 03:37:25;;;;;;;14.25;10.55;;;18.90;94.20;;;;;;5095179;28;20044;-47
2021/07/21 03:39:56;;;;;;;12.90;10.13;;;19.00;94.10;;;;;;5114234;28;20035;-47
2021/07/21 03:42:28;;;;;;;13.57;10.15;;;18.90;94.20;;;;;;5113924;28;20027;-49
2021/07/21 03:44:58;;;;;;;13.32;10.73;;;18.90;94.40;;;;;;5114731;28;20024;-47
2021/07/21 03:47:25;;;;;;;14.07;10.77;;;18.90;94.30;;;;;;5114137;28;20089;-47
2021/07/21 03:49:52;;;;;;;16.48;10.55;;;18.80;94.10;;;;;;5114224;28;20027;-47
2021/07/21 03:52:19;;;;;;;14.93;10.32;;;18.90;94.20;;;;;;5114079;28;20085;-48
2021/07/21 03:54:47;;;;;;;15.55;10.20;;;18.90;94.30;;;;;;5095186;28;20036;-48
2021/07/21 03:57:16;;;;;;;16.38;10.93;;;18.90;94.40;;;;;;5114231;28;20035;-48
2021/07/21 03:59:42;;;;;;;13.73;9.98;;;18.80;94.20;;;;;;5114186;28;20042;-48
2021/07/21 04:02:09;;;;;;;13.40;10.15;;;18.80;94.20;;;;;;5115846;28;20019;-47
2021/07/21 04:04:42;;;;;;;15.73;11.25;;;18.90;94.40;;;;;;5114172;28;20114;-49
2021/07/21 04:07:11;;;;;;;14.82;10.40;;;18.90;94.20;;;;;;5113753;28;20063;-48
2021/07/21 04:09:38;;;;;;;14.13;10.07;;;19.00;94.20;;;;;;5078028;28;20036;-48
2021/07/21 04:12:05;;;;;;;16.13;10.23;;;19.10;93.90;;;;;;5105520;28;20134;-48
2021/07/21 04:14:31;;;;;;;14.68;10.30;;;19.00;93.90;;;;;;5113961;28;20085;-47
2021/07/21 04:16:59;;;;;;;15.38;10.18;;;18.90;94.00;;;;;;5111934;28;20063;-47
2021/07/21 04:19:26;;;;;;;14.55;10.20;;;19.00;94.00;;;;;;5111653;28;20047;-51
2021/07/21 04:21:55;;;;;;;14.25;10.25;;;19.10;93.90;;;;;;5113668;28;20181;-47
2021/07/21 04:24:23;;;;;;;13.73;10.65;;;19.10;93.70;;;;;;5119032;28;20470;-47
2021/07/21 04:26:50;;;;;;;15.10;10.80;;;19.20;93.90;;;;;;5102417;28;20394;-50
2021/07/21 04:29:19;;;;;;;15.13;10.63;;;19.20;93.90;;;;;;5128783;28;20031;-48
2021/07/21 04:31:48;;;;;;;16.25;10.18;;;19.30;93.80;;;;;;5119156;28;20024;-48
2021/07/21 04:34:15;;;;;;;13.55;9.77;;;19.40;93.70;;;;;;5130540;28;20080;-49
2021/07/21 04:36:41;;;;;;;16.10;10.95;;;19.50;93.60;;;;;;5126796;27;20023;-48
2021/07/21 04:39:12;;;;;;;13.52;9.93;;;19.50;93.60;;;;;;5115377;28;20043;-48
2021/07/21 04:41:38;;;;;;;14.90;9.43;;;19.60;93.20;;;;;;5119156;28;20110;-47
2021/07/21 04:44:05;;;;;;;13.55;9.00;;;19.60;93.00;;;;;;5123764;27;20084;-49
2021/07/21 04:46:32;;;;;;;14.93;10.18;;;19.70;92.70;;;;;;5117132;28;20053;-47
2021/07/21 04:48:58;;;;;;;15.40;10.40;;;19.70;92.70;;;;;;5106246;28;20035;-51
2021/07/21 04:51:25;;;;;;;16.85;9.73;;;19.70;92.80;;;;;;5119721;28;20069;-48
2021/07/21 04:53:55;;;;;;;17.77;10.60;;;19.90;92.90;;;;;;5121832;27;20032;-47
2021/07/21 04:56:21;;;;;;;16.00;9.60;;;19.90;92.80;;;;;;5126258;27;20027;-47
2021/07/21 04:58:47;;;;;;;14.90;9.60;;;19.90;92.50;;;;;;5120528;27;20057;-49
2021/07/21 05:01:14;;;;;;;15.65;10.13;;;19.90;92.40;;;;;;5118651;27;20027;-47
2021/07/21 05:03:40;;;;;;;14.90;9.65;;;19.80;92.60;;;;;;5128026;27;20034;-48
2021/07/21 05:06:06;;;;;;;14.95;10.32;;;19.70;92.70;;;;;;5072833;27;20047;-49
2021/07/21 05:08:32;;;;;;;13.68;10.40;;;19.70;92.60;;;;;;5072779;27;20024;-47
2021/07/21 05:10:57;;;;;;;15.88;11.13;;;19.80;92.80;;;;;;5102623;28;20527;-48
2021/07/21 05:13:23;;;;;;;14.75;10.60;;;20.00;92.90;;;;;;5096330;28;20038;-48
2021/07/21 05:15:49;;;;;;;19.58;11.48;;;20.00;92.30;;;;;;5110556;27;20074;-48
2021/07/21 05:18:15;;;;;;;12.00;10.07;;;20.00;91.70;;;;;;5111553;28;20035;-48
2021/07/21 05:20:41;;;;;;;13.85;10.27;;;20.10;92.20;;;;;;5115942;27;20031;-48
2021/07/21 05:23:07;;;;;;;13.63;9.30;;;20.10;92.10;;;;;;5116836;28;20031;-47
2021/07/21 05:25:36;;;;;;;12.45;8.38;;;20.10;92.10;;;;;;5124233;27;20030;-46
2021/07/21 05:28:08;;;;;;;12.68;7.72;;;20.10;92.10;;;;;;5113647;27;20394;-45
2021/07/21 05:30:35;;;;;;;16.15;10.77;;;20.10;91.90;;;;;;5117007;27;20421;-45
2021/07/21 05:33:01;;;;;;;14.38;10.13;;;20.10;92.00;;;;;;5057413;28;20119;-45
2021/07/21 05:35:27;;;;;;;17.83;10.77;;;20.10;92.20;;;;;;5082995;28;20035;-46
2021/07/21 05:37:54;;;;;;;15.02;9.32;;;20.20;92.20;;;;;;5088966;28;20040;-46
2021/07/21 05:40:20;;;;;;;15.27;10.23;;;20.20;91.60;;;;;;5086174;28;20033;-46
2021/07/21 05:42:46;;;;;;;13.45;9.52;;;20.20;91.60;;;;;;5039877;28;20051;-45
2021/07/21 05:45:12;;;;;;;17.00;10.18;;;20.20;91.80;;;;;;5073418;28;20031;-46
2021/07/21 05:47:38;;;;;;;19.75;11.27;;;20.20;91.70;;;;;;5056260;28;20105;-46
2021/07/21 05:50:05;;;;;;;15.73;10.35;;;20.30;92.10;;;;;;5039600;28;20029;-46
2021/07/21 05:52:32;;;;;;;15.10;10.48;;;20.30;91.70;;;;;;5023768;28;20038;-46
2021/07/21 05:54:58;;;;;;;18.65;10.75;;;20.40;91.90;;;;;;5077102;28;20380;-45
2021/07/21 05:57:25;;;;;;;18.83;9.93;;;20.30;91.80;;;;;;5087266;28;20032;-47
2021/07/21 05:59:51;;;;;;;17.80;11.15;;;20.10;91.90;;;;;;5045212;28;20055;-45
2021/07/21 06:02:18;;;;;;;24.52;11.90;;;20.30;91.90;;;;;;5072918;28;20586;-46
2021/07/21 06:04:44;;;;;;;26.13;10.20;;;20.20;92.00;;;;;;5106464;28;20035;-46
2021/07/21 06:07:10;;;;;;;18.88;11.20;;;20.20;92.10;;;;;;5096764;28;20110;-46
2021/07/21 06:09:35;;;;;;;16.13;10.90;;;20.20;91.90;;;;;;5117215;27;20023;-46
2021/07/21 06:12:02;;;;;;;16.15;10.35;;;20.30;92.00;;;;;;5134513;27;20072;-45
2021/07/21 06:14:28;;;;;;;16.95;9.55;;;20.30;92.30;;;;;;5096176;28;20036;-46
2021/07/21 06:16:54;;;;;;;17.15;10.50;;;20.20;92.10;;;;;;5121584;27;20034;-46
2021/07/21 06:19:20;;;;;;;22.08;11.60;;;20.40;92.00;;;;;;5125665;27;20036;-45
2021/07/21 06:21:46;;;;;;;16.60;10.43;;;20.60;91.80;;;;;;5099749;28;20039;-45
2021/07/21 06:24:11;;;;;;;16.10;10.75;;;20.90;91.80;;;;;;5115436;28;20032;-45
2021/07/21 06:26:37;;;;;;;18.83;11.30;;;20.90;91.30;;;;;;5115264;28;20034;-46
2021/07/21 06:29:03;;;;;;;17.75;11.10;;;21.10;90.90;;;;;;5115799;28;20023;-45
2021/07/21 06:31:29;;;;;;;20.52;10.63;;;21.10;91.10;;;;;;5115287;28;20478;-45
2021/07/21 06:33:55;;;;;;;18.63;10.60;;;21.20;91.60;;;;;;5115083;28;20020;-46
2021/07/21 06:36:21;;;;;;;14.25;9.52;;;21.30;91.00;;;;;;5113826;28;20114;-45
2021/07/21 06:38:47;;;;;;;17.42;10.55;;;21.10;90.20;;;;;;5113051;28;20096;-46
2021/07/21 06:41:14;;;;;;;17.65;10.38;;;21.10;90.70;;;;;;5062237;28;20027;-46
2021/07/21 06:43:41;;;;;;;13.10;8.65;;;21.40;91.00;;;;;;5124031;27;20105;-45
2021/07/21 06:46:07;;;;;;;14.48;9.48;;;21.20;90.60;;;;;;5124618;27;20030;-46
2021/07/21 06:48:33;;;;;;;15.38;10.05;;;21.30;90.60;;;;;;5125644;27;20039;-45
2021/07/21 06:50:59;;;;;;;17.63;8.45;;;21.40;90.60;;;;;;5123060;27;20020;-46
2021/07/21 06:53:25;;;;;;;14.85;9.25;;;21.30;90.00;;;;;;5122795;27;20469;-46
2021/07/21 06:55:51;;;;;;;12.98;9.52;;;21.40;89.70;;;;;;5125748;27;20031;-46
2021/07/21 06:58:16;;;;;;;12.70;9.38;;;21.60;88.90;;;;;;5112285;28;20039;-46
2021/07/21 07:00:42;;;;;;;15.27;9.88;;;21.80;87.60;;;;;;5124646;27;20034;-46
2021/07/21 07:03:09;;;;;;;11.95;8.75;;;21.90;87.30;;;;;;5094367;27;20072;-46
2021/07/21 07:05:35;;;;;;;13.32;9.43;;;21.90;87.60;;;;;;5118712;27;20059;-46
2021/07/21 07:08:00;;;;;;;21.40;13.93;;;22.10;86.90;;;;;;5112183;27;20793;-46
2021/07/21 07:10:26;;;;;;;15.45;7.88;;;22.10;87.50;;;;;;5101969;28;20046;-46
2021/07/21 07:12:52;;;;;;;15.98;9.43;;;22.10;85.20;;;;;;5122929;27;20451;-46
2021/07/21 07:15:17;;;;;;;11.70;8.15;;;22.00;86.10;;;;;;5120322;27;20597;-46
2021/07/21 07:17:46;;;;;;;14.98;9.27;;;22.10;86.40;;;;;;5118181;27;20020;-46
2021/07/21 07:20:12;;;;;;;12.55;9.43;;;22.20;85.80;;;;;;5118104;27;20083;-45
2021/07/21 07:22:37;;;;;;;13.75;9.43;;;22.10;86.10;;;;;;5111722;27;20436;-46
2021/07/21 07:25:04;;;;;;;9.85;6.55;;;22.10;85.70;;;;;;5120587;27;20034;-46
2021/07/21 07:27:30;;;;;;;12.60;8.70;;;21.80;86.00;;;;;;5064874;27;20035;-47
2021/07/21 07:29:57;;;;;;;10.73;8.55;;;22.10;86.20;;;;;;5115409;27;20091;-45
2021/07/21 07:32:23;;;;;;;12.02;9.05;;;22.40;87.10;;;;;;5120402;27;20098;-46
2021/07/21 07:34:49;;;;;;;12.55;8.25;;;22.60;86.30;;;;;;5098814;28;20043;-45
2021/07/21 07:37:15;;;;;;;12.45;8.75;;;22.90;84.90;;;;;;5116934;27;20020;-45
2021/07/21 07:39:40;;;;;;;14.18;7.88;;;23.00;83.80;;;;;;5114027;27;20058;-45
2021/07/21 07:42:06;;;;;;;13.23;9.48;;;22.80;83.30;;;;;;5120752;27;20459;-45
2021/07/21 07:44:32;;;;;;;12.07;8.65;;;23.10;83.20;;;;;;5116662;27;20028;-46
2021/07/21 07:46:58;;;;;;;12.82;8.15;;;23.10;84.30;;;;;;5067324;27;20077;-46
2021/07/21 07:49:24;;;;;;;10.38;7.45;;;23.30;83.50;;;;;;5116982;27;20385;-46
2021/07/21 07:51:50;;;;;;;11.02;7.78;;;23.60;83.30;;;;;;5116703;28;20027;-49
2021/07/21 07:54:18;;;;;;;11.77;7.75;;;23.60;81.60;;;;;;5114097;28;20035;-45
2021/07/21 07:56:44;;;;;;;13.07;8.88;;;23.60;81.50;;;;;;5122057;27;20096;-46
2021/07/21 07:59:10;;;;;;;11.63;7.65;;;23.60;81.50;;;;;;5120228;28;20481;-46
2021/07/21 08:01:36;;;;;;;12.82;7.15;;;23.60;81.80;;;;;;5110789;28;20103;-46
2021/07/21 08:04:02;;;;;;;11.40;7.90;;;23.40;81.30;;;;;;5080226;28;20039;-48
2021/07/21 08:06:28;;;;;;;8.70;7.07;;;23.40;80.10;;;;;;5095713;28;20039;-49
2021/07/21 08:08:53;;;;;;;10.38;7.10;;;23.70;81.50;;;;;;5093487;28;20043;-49
2021/07/21 08:11:19;;;;;;;12.25;7.00;;;23.90;79.50;;;;;;5094911;28;20039;-49
2021/07/21 08:13:45;;;;;;;11.82;7.22;;;23.80;78.60;;;;;;5116022;28;20074;-49
2021/07/21 08:16:12;;;;;;;9.60;6.25;;;23.90;78.70;;;;;;5117678;27;20052;-49
2021/07/21 08:18:38;;;;;;;14.65;7.28;;;23.70;77.30;;;;;;5094476;28;20050;-46
2021/07/21 08:21:04;;;;;;;10.77;7.18;;;23.90;79.20;;;;;;5115761;28;20531;-45
2021/07/21 08:23:30;;;;;;;11.32;6.55;;;23.90;78.00;;;;;;5113817;28;20063;-45
2021/07/21 08:25:56;;;;;;;11.35;7.50;;;24.00;78.60;;;;;;5115979;28;20036;-47
2021/07/21 08:28:22;;;;;;;8.27;5.97;;;24.20;79.00;;;;;;5121093;27;20042;-45
2021/07/21 08:30:48;;;;;;;10.80;6.82;;;24.20;76.60;;;;;;5123760;27;20034;-46
2021/07/21 08:33:14;;;;;;;7.30;5.47;;;24.20;77.60;;;;;;5115289;27;20062;-46
2021/07/21 08:35:41;;;;;;;9.75;6.78;;;24.00;77.40;;;;;;5118148;27;20099;-46
2021/07/21 08:38:07;;;;;;;8.88;6.60;;;24.10;77.90;;;;;;5086763;27;20042;-48
2021/07/21 08:40:33;;;;;;;11.85;7.63;;;24.20;77.00;;;;;;5117803;27;20028;-46
2021/07/21 08:42:59;;;;;;;12.40;7.28;;;24.30;78.10;;;;;;5120769;27;20031;-46
2021/07/21 08:45:25;;;;;;;12.18;6.93;;;24.50;76.50;;;;;;5124243;27;20081;-47
2021/07/21 08:47:51;;;;;;;9.50;6.07;;;24.70;76.90;;;;;;5121001;27;20086;-46
2021/07/21 08:50:17;;;;;;;9.40;6.45;;;24.40;77.40;;;;;;5097265;27;20059;-46
2021/07/21 08:52:43;;;;;;;8.57;6.85;;;24.60;77.20;;;;;;5119736;27;20076;-46
2021/07/21 08:55:13;;;;;;;10.07;6.53;;;24.70;75.20;;;;;;5053796;27;20084;-46
2021/07/21 08:57:40;;;;;;;14.50;7.03;;;24.90;75.10;;;;;;5101580;28;20040;-46
2021/07/21 09:00:14;;;;;;;9.98;7.28;;;24.90;76.30;;;;;;5101805;28;20475;-47
2021/07/21 09:02:41;;;;;;;7.85;5.75;;;24.90;74.80;;;;;;5122883;27;20035;-46
2021/07/21 09:05:08;;;;;;;11.00;6.68;;;25.00;76.00;;;;;;5099573;27;20445;-47
2021/07/21 09:07:39;;;;;;;10.55;6.35;;;25.10;76.20;;;;;;5068946;28;20070;-47
2021/07/21 09:10:07;;;;;;;6.78;5.65;;;25.20;75.30;;;;;;5118085;27;20031;-47
2021/07/21 09:12:33;;;;;;;9.30;6.53;;;24.80;73.00;;;;;;5081223;28;20047;-46
2021/07/21 09:14:59;;;;;;;8.75;6.40;;;25.00;74.60;;;;;;5121899;27;20040;-47
2021/07/21 09:17:27;;;;;;;15.95;6.45;;;25.20;74.60;;;;;;5119222;27;20067;-50
2021/07/21 09:19:53;;;;;;;8.20;6.45;;;25.50;71.70;;;;;;5117223;27;20035;-49
2021/07/21 09:22:29;;;;;;;8.85;6.15;;;25.40;74.10;;;;;;5128095;27;20374;-49
2021/07/21 09:25:19;;;;;;;7.15;4.85;;;25.50;74.60;;;;;;5117504;27;20027;-49
2021/07/21 09:27:53;;;;;;;7.80;5.47;;;25.10;72.70;;;;;;5124187;27;20035;-49
2021/07/21 09:30:31;;;;;;;11.38;6.03;;;25.20;71.90;;;;;;5119629;27;20019;-49
2021/07/21 09:33:05;;;;;;;9.48;5.97;;;25.40;73.00;;;;;;5117165;27;20020;-50
2021/07/21 09:35:40;;;;;;;6.53;5.40;;;25.80;73.20;;;;;;5121330;27;20024;-49
2021/07/21 09:38:21;;;;;;;8.82;5.80;;;25.80;71.30;;;;;;5115774;27;20122;-49
2021/07/21 09:40:53;;;;;;;7.32;3.88;;;25.30;72.80;;;;;;5123785;27;20035;-50
2021/07/21 09:43:24;;;;;;;7.93;5.95;;;25.60;74.10;;;;;;5121963;27;20028;-50
2021/07/21 09:45:50;;;;;;;8.70;5.78;;;25.80;70.60;;;;;;5118895;27;20458;-49
2021/07/21 09:48:19;;;;;;;8.48;6.10;;;25.80;70.60;;;;;;5116841;27;20060;-49
2021/07/21 09:50:47;;;;;;;10.98;5.72;;;25.90;72.50;;;;;;5116707;27;20031;-49
2021/07/21 09:53:15;;;;;;;9.60;6.63;;;25.90;71.60;;;;;;5106279;27;20039;-50
2021/07/21 09:55:46;;;;;;;8.38;6.22;;;26.20;71.80;;;;;;5118388;27;20024;-50
2021/07/21 09:58:19;;;;;;;6.07;4.85;;;26.40;72.00;;;;;;5121754;27;20027;-48
2021/07/21 10:00:47;;;;;;;7.95;5.25;;;26.20;70.80;;;;;;5116876;27;20047;-49
2021/07/21 10:03:15;;;;;;;7.85;5.95;;;26.10;71.00;;;;;;5118096;27;20632;-50
2021/07/21 10:06:02;;;;;;;9.68;6.35;;;26.00;70.80;;;;;;5113725;28;20463;-49
2021/07/21 10:08:49;;;;;;;8.57;5.75;;;26.30;72.50;;;;;;5119627;27;20115;-49
2021/07/21 10:11:22;;;;;;;9.18;6.10;;;26.30;70.50;;;;;;5117736;27;20087;-49
2021/07/21 10:13:49;;;;;;;9.23;4.03;;;26.40;71.20;;;;;;5103552;27;20363;-49
2021/07/21 10:16:44;;;;;;;6.57;5.82;;;26.20;69.60;;;;;;5118556;27;20038;-49
2021/07/21 10:19:14;;;;;;;9.20;6.57;;;26.40;69.70;;;;;;5048678;28;20435;-49
2021/07/21 10:21:45;;;;;;;9.95;6.53;;;26.80;71.30;;;;;;5048309;28;20068;-49
2021/07/21 10:24:13;;;;;;;9.02;6.00;;;26.90;68.80;;;;;;5029811;28;20039;-49
2021/07/21 10:26:40;;;;;;;8.38;5.25;;;27.20;70.70;;;;;;5047505;28;20480;-49
2021/07/21 10:29:07;;;;;;;7.82;5.90;;;27.00;70.00;;;;;;5045657;28;20033;-50
2021/07/21 10:31:34;;;;;;;8.63;6.00;;;27.10;69.00;;;;;;5018279;28;20064;-49
2021/07/21 10:34:00;;;;;;;9.05;6.13;;;27.10;69.00;;;;;;5045362;28;20033;-49
2021/07/21 10:36:26;;;;;;;7.25;5.80;;;27.20;70.70;;;;;;5048615;28;20033;-49
2021/07/21 10:38:52;;;;;;;7.57;5.53;;;27.40;67.80;;;;;;5046973;28;20578;-49
2021/07/21 10:41:19;;;;;;;9.55;5.00;;;27.10;67.80;;;;;;5048852;28;20033;-47
2021/07/21 10:43:52;;;;;;;11.50;5.95;;;26.40;68.50;;;;;;5045039;28;20037;-46
2021/07/21 10:46:37;;;;;;;9.63;6.63;;;26.70;69.50;;;;;;5017155;28;20033;-47
2021/07/21 10:49:36;;;;;;;7.00;5.43;;;26.80;69.10;;;;;;5001297;28;20047;-47
2021/07/21 11:00:40;;;;;;;7.32;5.40;;;27.40;68.40;;;;;;5056277;28;20061;-46
2021/07/21 11:03:19;;;;;;;6.07;3.90;;;26.80;67.70;;;;;;5061098;28;20610;-47
2021/07/21 11:05:52;;;;;;;8.30;5.78;;;26.50;66.80;;;;;;5058931;28;20060;-47
2021/07/21 11:08:20;;;;;;;8.00;5.05;;;26.70;67.10;;;;;;5058822;28;20031;-48
2021/07/21 11:10:48;;;;;;;7.30;4.93;;;26.80;67.10;;;;;;5059778;28;20020;-47
2021/07/21 11:13:38;;;;;;;8.80;5.60;;;27.00;67.50;;;;;;5052707;28;20033;-46
2021/07/21 11:16:05;;;;;;;6.85;3.85;;;26.70;68.20;;;;;;5058973;28;20033;-48
2021/07/21 11:18:43;;;;;;;8.18;5.78;;;26.50;67.30;;;;;;5059682;28;20147;-46
2021/07/21 11:21:17;;;;;;;8.95;5.43;;;27.10;68.60;;;;;;5024210;28;20040;-48
2021/07/21 11:23:47;;;;;;;8.65;6.28;;;27.20;68.80;;;;;;5031965;28;20040;-47
2021/07/21 11:26:29;;;;;;;12.48;5.25;;;27.80;68.90;;;;;;5044452;28;20037;-47
2021/07/21 11:28:55;;;;;;;9.23;5.80;;;28.00;66.50;;;;;;5085980;27;20057;-47
2021/07/21 11:31:50;;;;;;;8.35;6.25;;;27.80;65.40;;;;;;5117618;27;20070;-46
2021/07/21 11:34:36;;;;;;;9.55;5.82;;;28.10;65.90;;;;;;5071497;28;20436;-48
2021/07/21 11:37:21;;;;;;;8.27;5.57;;;28.20;66.70;;;;;;5069685;28;20037;-45
2021/07/21 11:39:57;;;;;;;5.50;4.25;;;28.20;64.00;;;;;;5071201;28;20056;-49
2021/07/21 11:42:38;;;;;;;6.25;5.32;;;27.80;66.90;;;;;;5062561;28;20040;-47
2021/07/21 11:45:11;;;;;;;9.23;5.90;;;27.70;66.80;;;;;;5072842;28;20036;-47
2021/07/21 11:47:56;;;;;;;10.95;5.90;;;28.00;66.80;;;;;;5073556;28;20056;-49
2021/07/21 11:50:30;;;;;;;9.75;6.38;;;28.00;67.00;;;;;;5028422;28;20504;-48
2021/07/21 11:52:58;;;;;;;9.30;6.82;;;28.00;64.00;;;;;;4996339;28;20116;-48
2021/07/21 11:55:32;;;;;;;10.15;6.10;;;28.10;65.60;;;;;;5029637;28;20112;-49
2021/07/21 11:58:08;;;;;;;8.00;5.45;;;28.40;68.80;;;;;;5032067;28;20038;-48
2021/07/21 12:00:34;;;;;;;7.18;5.15;;;28.40;65.60;;;;;;5036364;28;20086;-49
2021/07/21 12:03:01;;;;;;;7.32;4.95;;;28.30;66.20;;;;;;5027605;28;20029;-49
2021/07/21 12:05:27;;;;;;;7.40;6.50;;;28.40;65.10;;;;;;5014872;28;20037;-48
2021/07/21 12:07:58;;;;;;;7.32;5.35;;;28.40;66.10;;;;;;5018533;28;20388;-47
2021/07/21 12:10:24;;;;;;;8.40;6.03;;;28.60;65.40;;;;;;5037794;28;20040;-47
2021/07/21 12:12:49;;;;;;;5.53;3.50;;;28.90;65.60;;;;;;5054286;28;20032;-46
2021/07/21 12:15:17;;;;;;;8.07;5.50;;;28.30;64.20;;;;;;5079859;28;20043;-48
2021/07/21 12:17:43;;;;;;;7.57;6.18;;;28.30;64.50;;;;;;5074036;28;20020;-48
2021/07/21 12:20:13;;;;;;;7.20;4.85;;;28.00;65.80;;;;;;5071775;28;20489;-48
2021/07/21 12:22:41;;;;;;;9.82;6.00;;;28.10;66.20;;;;;;5081432;28;20470;-49
2021/07/21 12:25:15;;;;;;;7.47;5.65;;;28.50;67.90;;;;;;5083766;28;20040;-48
2021/07/21 12:27:43;;;;;;;8.75;6.57;;;28.30;65.90;;;;;;5040244;28;20066;-46
2021/07/21 12:30:21;;;;;;;6.47;5.05;;;27.90;65.70;;;;;;5058444;28;20031;-47
2021/07/21 12:32:49;;;;;;;7.28;5.28;;;27.40;66.70;;;;;;5117113;28;20030;-47
2021/07/21 12:35:23;;;;;;;10.30;5.72;;;27.60;66.00;;;;;;5114208;28;20024;-49
2021/07/21 12:37:50;;;;;;;11.60;5.45;;;27.80;66.80;;;;;;5114290;28;20102;-46
2021/07/21 12:40:19;;;;;;;8.13;5.65;;;27.90;65.90;;;;;;5112874;28;20071;-46
2021/07/21 12:42:46;;;;;;;9.15;6.07;;;27.80;64.70;;;;;;5114943;28;20059;-46
2021/07/21 12:45:15;;;;;;;6.63;5.25;;;28.00;65.90;;;;;;5117543;28;20027;-46
2021/07/21 12:47:43;;;;;;;9.18;6.50;;;28.40;66.50;;;;;;5116978;28;20043;-46
2021/07/21 12:50:12;;;;;;;7.78;5.78;;;28.70;67.50;;;;;;5117261;28;20031;-46
2021/07/21 12:52:44;;;;;;;8.85;5.65;;;28.10;64.40;;;;;;5112325;28;20019;-46
2021/07/21 12:55:14;;;;;;;7.85;6.05;;;28.00;66.10;;;;;;5112012;28;20419;-49